createdAt,value
2022-09-28T00:00:59.570Z,5.47
2022-09-28T00:03:25.939Z,5.72
2022-09-28T00:05:52.209Z,7.40
2022-09-28T00:08:18.675Z,5.78
2022-09-28T00:10:46.307Z,7.75
2022-09-28T00:13:12.565Z,10.90
2022-09-28T00:15:38.798Z,8.68
2022-09-28T00:18:05.078Z,4.53
2022-09-28T00:20:31.310Z,7.95
2022-09-28T00:22:57.625Z,5.80
2022-09-28T00:25:24.912Z,4.88
2022-09-28T00:27:51.304Z,6.03
2022-09-28T00:30:17.599Z,5.82
2022-09-28T00:32:43.856Z,7.53
2022-09-28T00:35:10.292Z,8.45
2022-09-28T00:37:36.558Z,6.03
2022-09-28T00:40:02.892Z,6.18
2022-09-28T00:42:29.441Z,8.60
2022-09-28T00:44:56.437Z,8.48
2022-09-28T00:47:34.000Z,5.05
2022-09-28T00:50:03.257Z,5.28
2022-09-28T00:52:49.817Z,6.78
2022-09-28T00:55:17.688Z,4.15
2022-09-28T00:57:45.586Z,3.75
2022-09-28T01:00:12.371Z,8.60
2022-09-28T01:02:38.718Z,4.45
2022-09-28T01:05:06.181Z,4.13
2022-09-28T01:07:33.319Z,9.95
2022-09-28T01:09:59.734Z,6.65
2022-09-28T01:12:25.981Z,6.18
2022-09-28T01:14:52.577Z,4.93
2022-09-28T01:17:25.410Z,6.88
2022-09-28T01:20:07.754Z,10.82
2022-09-28T01:22:33.992Z,11.40
2022-09-28T01:25:00.200Z,6.68
2022-09-28T01:27:34.179Z,7.70
2022-09-28T01:30:03.539Z,5.45
2022-09-28T01:32:48.550Z,8.32
2022-09-28T01:35:31.907Z,5.20
2022-09-28T01:38:17.431Z,7.47
2022-09-28T01:40:44.368Z,5.70
2022-09-28T01:43:13.613Z,9.20
2022-09-28T01:45:43.500Z,7.20
2022-09-28T01:48:11.783Z,6.57
2022-09-28T01:50:40.450Z,6.10
2022-09-28T01:53:19.100Z,9.45
2022-09-28T01:55:47.998Z,6.30
2022-09-28T01:58:16.412Z,7.57
2022-09-28T02:00:45.612Z,6.82
2022-09-28T02:03:14.242Z,5.85
2022-09-28T02:05:41.957Z,4.65
2022-09-28T02:08:29.529Z,6.60
2022-09-28T02:11:18.208Z,7.63
2022-09-28T02:13:54.717Z,4.88
2022-09-28T02:16:34.514Z,6.88
2022-09-28T02:19:01.259Z,7.60
2022-09-28T02:21:38.951Z,13.13
2022-09-28T02:24:21.211Z,12.10
2022-09-28T02:26:49.912Z,9.15
2022-09-28T02:29:16.600Z,5.20
2022-09-28T02:31:43.199Z,6.32
2022-09-28T02:34:09.748Z,10.88
2022-09-28T02:36:36.080Z,8.82
2022-09-28T02:39:02.749Z,6.20
2022-09-28T02:41:35.071Z,12.02
2022-09-28T02:44:04.364Z,8.02
2022-09-28T02:46:49.497Z,7.18
2022-09-28T02:49:21.877Z,9.63
2022-09-28T02:52:07.759Z,7.00
2022-09-28T02:54:53.047Z,6.75
2022-09-28T02:57:19.650Z,10.30
2022-09-28T03:00:01.957Z,9.18
2022-09-28T03:02:34.625Z,12.48
2022-09-28T03:05:20.602Z,8.13
2022-09-28T03:07:46.833Z,9.30
2022-09-28T03:10:20.451Z,8.48
2022-09-28T03:12:48.201Z,10.57
2022-09-28T03:15:14.449Z,10.07
2022-09-28T03:17:40.922Z,11.63
2022-09-28T03:20:07.337Z,6.40
2022-09-28T03:22:33.608Z,12.88
2022-09-28T03:24:59.850Z,8.57
2022-09-28T03:27:26.151Z,7.90
2022-09-28T03:29:52.410Z,13.60
2022-09-28T03:32:18.654Z,7.55
2022-09-28T03:34:44.881Z,11.18
2022-09-28T03:37:11.140Z,11.07
2022-09-28T03:39:37.369Z,10.48
2022-09-28T03:42:03.701Z,13.57
2022-09-28T03:44:29.937Z,10.35
2022-09-28T03:46:56.489Z,7.90
2022-09-28T03:49:22.752Z,9.15
2022-09-28T03:51:50.077Z,7.10
2022-09-28T03:54:16.357Z,9.70
2022-09-28T03:56:42.597Z,11.43
2022-09-28T03:59:08.894Z,8.07
2022-09-28T04:01:35.173Z,10.30
2022-09-28T04:04:01.623Z,7.93
2022-09-28T04:06:28.024Z,8.23
2022-09-28T04:08:54.269Z,6.78
2022-09-28T04:11:20.802Z,7.68
2022-09-28T04:13:50.219Z,7.90
2022-09-28T04:16:17.913Z,10.50
2022-09-28T04:18:44.414Z,8.23
2022-09-28T04:21:12.011Z,7.60
2022-09-28T04:23:39.215Z,6.82
2022-09-28T04:26:06.907Z,6.47
2022-09-28T04:28:52.014Z,6.20
2022-09-28T04:31:19.655Z,8.13
2022-09-28T04:33:45.990Z,7.43
2022-09-28T04:36:12.229Z,6.53
2022-09-28T04:38:52.215Z,10.23
2022-09-28T04:41:19.753Z,4.60
2022-09-28T04:43:49.068Z,7.40
2022-09-28T04:46:15.407Z,7.75
2022-09-28T04:48:41.746Z,5.97
2022-09-28T04:51:08.058Z,6.30
2022-09-28T04:53:35.079Z,8.98
2022-09-28T04:56:02.995Z,8.27
2022-09-28T04:58:29.551Z,7.88
2022-09-28T05:01:00.394Z,10.70
2022-09-28T05:03:27.137Z,9.60
2022-09-28T05:05:53.387Z,11.35
2022-09-28T05:08:19.666Z,10.63
2022-09-28T05:10:46.132Z,8.25
2022-09-28T05:13:12.923Z,9.75
2022-09-28T05:15:40.096Z,9.68
2022-09-28T05:18:06.735Z,11.00
2022-09-28T05:20:33.165Z,8.23
2022-09-28T05:22:59.463Z,10.48
2022-09-28T05:25:25.714Z,8.63
2022-09-28T05:27:58.025Z,7.22
2022-09-28T05:30:24.482Z,7.65
2022-09-28T05:32:51.379Z,9.13
2022-09-28T05:35:17.640Z,7.53
2022-09-28T05:37:43.890Z,8.43
2022-09-28T05:40:10.500Z,9.93
2022-09-28T05:42:36.752Z,7.43
2022-09-28T05:45:03.559Z,8.30
2022-09-28T05:47:29.910Z,8.00
2022-09-28T05:49:56.166Z,9.43
2022-09-28T05:52:22.553Z,10.88
2022-09-28T05:54:48.835Z,8.40
2022-09-28T05:57:15.144Z,8.98
2022-09-28T05:59:41.419Z,9.30
2022-09-28T06:02:07.707Z,13.65
2022-09-28T06:04:33.978Z,8.13
2022-09-28T06:07:00.218Z,10.55
2022-09-28T06:09:26.522Z,5.50
2022-09-28T06:11:52.812Z,3.67
2022-09-28T06:14:19.083Z,4.03
2022-09-28T06:16:45.416Z,3.65
2022-09-28T06:19:11.894Z,3.80
2022-09-28T06:21:38.491Z,3.40
2022-09-28T06:24:05.017Z,5.15
2022-09-28T06:26:31.397Z,1.98
2022-09-28T06:28:57.647Z,2.00
2022-09-28T06:31:24.921Z,2.10
2022-09-28T06:33:51.718Z,5.00
2022-09-28T06:36:18.171Z,1.73
2022-09-28T06:38:45.216Z,5.25
2022-09-28T06:41:11.589Z,5.03
2022-09-28T06:43:39.644Z,4.38
2022-09-28T06:46:07.001Z,2.22
2022-09-28T06:48:34.063Z,3.80
2022-09-28T06:51:00.666Z,3.45
2022-09-28T06:53:28.433Z,10.90
2022-09-28T06:55:56.034Z,3.40
2022-09-28T06:58:22.598Z,8.43
2022-09-28T07:00:50.789Z,7.05
2022-09-28T07:03:18.561Z,4.40
2022-09-28T07:05:45.948Z,6.13
2022-09-28T07:08:12.700Z,4.20
2022-09-28T07:10:43.346Z,4.57
2022-09-28T07:13:26.611Z,4.00
2022-09-28T07:15:56.891Z,4.18
2022-09-28T07:18:23.586Z,5.82
2022-09-28T07:20:54.126Z,5.22
2022-09-28T07:23:20.865Z,5.68
2022-09-28T07:25:49.545Z,7.60
2022-09-28T07:28:17.170Z,4.43
2022-09-28T07:30:44.716Z,8.98
2022-09-28T07:33:12.590Z,8.00
2022-09-28T07:35:39.791Z,5.57
2022-09-28T07:38:06.646Z,8.88
2022-09-28T07:40:52.016Z,7.45
2022-09-28T07:43:21.866Z,5.18
2022-09-28T07:45:54.892Z,5.78
2022-09-28T07:48:21.733Z,4.75
2022-09-28T07:50:51.664Z,6.18
2022-09-28T07:53:22.321Z,6.50
2022-09-28T07:55:51.318Z,5.20
2022-09-28T07:58:17.638Z,6.50
2022-09-28T08:00:45.369Z,4.47
2022-09-28T08:03:11.673Z,6.85
2022-09-28T08:05:37.974Z,6.82
2022-09-28T08:08:04.231Z,8.30
2022-09-28T08:10:30.931Z,4.72
2022-09-28T08:13:02.096Z,4.20
2022-09-28T08:15:30.083Z,8.18
2022-09-28T08:18:00.511Z,4.63
2022-09-28T08:20:51.337Z,6.25
2022-09-28T08:23:18.343Z,6.93
2022-09-28T08:25:49.049Z,3.92
2022-09-28T08:28:18.770Z,3.08
2022-09-28T08:30:45.840Z,4.82
2022-09-28T08:33:16.129Z,7.40
2022-09-28T08:35:42.543Z,4.63
2022-09-28T08:38:08.963Z,11.27
2022-09-28T08:40:41.696Z,5.70
2022-09-28T08:43:18.956Z,5.72
2022-09-28T08:45:45.243Z,4.90
2022-09-28T08:48:33.014Z,5.25
2022-09-28T08:51:02.118Z,3.70
2022-09-28T08:53:42.662Z,5.55
2022-09-28T08:56:14.567Z,4.45
2022-09-28T08:58:42.689Z,4.25
2022-09-28T09:01:11.766Z,4.43
2022-09-28T09:03:41.838Z,3.50
2022-09-28T09:06:18.159Z,5.80
2022-09-28T09:09:03.834Z,3.33
2022-09-28T09:11:40.491Z,3.88
2022-09-28T09:14:16.144Z,5.13
2022-09-28T09:16:51.222Z,6.68
2022-09-28T09:19:27.207Z,4.72
2022-09-28T09:22:01.931Z,6.63
2022-09-28T09:24:37.841Z,4.20
2022-09-28T09:27:05.537Z,3.90
2022-09-28T09:29:37.233Z,4.78
2022-09-28T09:32:16.045Z,4.90
2022-09-28T09:34:42.486Z,6.78
2022-09-28T09:37:16.705Z,6.00
2022-09-28T09:39:55.711Z,6.00
2022-09-28T09:42:29.670Z,8.77
2022-09-28T09:45:05.036Z,3.97
2022-09-28T09:47:34.543Z,4.55
2022-09-28T09:50:06.878Z,29.48
2022-09-28T09:52:46.563Z,4.85
2022-09-28T09:55:30.046Z,3.13
2022-09-28T09:58:00.051Z,5.57
2022-09-28T10:00:26.299Z,4.43
2022-09-28T10:02:53.224Z,4.18
2022-09-28T10:05:22.253Z,3.40
2022-09-28T10:07:54.719Z,5.28
2022-09-28T10:10:37.850Z,3.42
2022-09-28T10:13:04.186Z,9.55
2022-09-28T10:15:31.733Z,4.88
2022-09-28T10:18:03.206Z,6.07
2022-09-28T10:20:31.893Z,3.97
2022-09-28T10:23:01.954Z,7.03
2022-09-28T10:25:29.807Z,4.50
2022-09-28T10:27:56.781Z,6.80
2022-09-28T10:30:23.996Z,4.30
2022-09-28T10:32:52.423Z,3.22
2022-09-28T10:35:18.672Z,4.65
2022-09-28T10:37:47.655Z,5.47
2022-09-28T10:40:28.139Z,2.28
2022-09-28T10:43:00.034Z,3.15
2022-09-28T10:45:26.590Z,2.80
2022-09-28T10:47:52.865Z,5.30
2022-09-28T10:50:28.359Z,1.92
2022-09-28T10:53:09.821Z,2.75
2022-09-28T10:55:36.962Z,2.05
2022-09-28T10:58:21.715Z,1.13
2022-09-28T11:00:49.083Z,1.50
2022-09-28T11:03:20.393Z,2.78
2022-09-28T11:05:57.653Z,2.17
2022-09-28T11:08:28.341Z,4.00
2022-09-28T11:11:02.635Z,0.98
2022-09-28T11:13:29.272Z,2.40
2022-09-28T11:15:56.873Z,3.60
2022-09-28T11:18:29.433Z,2.08
2022-09-28T11:21:12.208Z,2.97
2022-09-28T11:23:42.058Z,1.70
2022-09-28T11:26:09.047Z,3.17
2022-09-28T11:28:37.465Z,7.20
2022-09-28T11:31:07.122Z,1.88
2022-09-28T11:33:35.708Z,2.53
2022-09-28T11:36:08.175Z,2.75
2022-09-28T11:38:40.190Z,2.58
2022-09-28T11:41:14.233Z,4.82
2022-09-28T11:43:40.440Z,3.03
2022-09-28T11:46:20.020Z,3.05
2022-09-28T11:48:49.261Z,1.88
2022-09-28T11:51:18.230Z,11.68
2022-09-28T11:54:04.824Z,2.00
2022-09-28T11:56:37.695Z,5.47
2022-09-28T11:59:10.958Z,3.50
2022-09-28T12:01:48.922Z,3.35
2022-09-28T12:04:15.159Z,3.40
2022-09-28T12:06:45.958Z,2.67
2022-09-28T12:09:18.121Z,2.67
2022-09-28T12:11:46.657Z,3.53
2022-09-28T12:14:19.947Z,1.85
2022-09-28T12:17:09.581Z,3.67
2022-09-28T12:19:42.372Z,7.03
2022-09-28T12:22:32.319Z,6.32
2022-09-28T12:24:59.240Z,3.47
2022-09-28T12:27:38.535Z,7.72
2022-09-28T12:30:11.582Z,4.95
2022-09-28T12:32:49.323Z,2.40
2022-09-28T12:35:40.036Z,4.13
2022-09-28T12:38:25.205Z,2.58
2022-09-28T12:41:10.823Z,6.85
2022-09-28T12:43:44.337Z,2.53
2022-09-28T12:46:28.824Z,4.10
2022-09-28T12:49:51.580Z,3.22
2022-09-28T12:51:52.739Z,2.30
2022-09-28T12:54:19.077Z,4.43
2022-09-28T12:56:51.204Z,6.70
2022-09-28T12:59:30.813Z,4.47
2022-09-28T13:02:12.581Z,7.07
2022-09-28T13:04:57.436Z,3.60
2022-09-28T13:07:23.715Z,4.20
2022-09-28T13:10:06.823Z,3.55
2022-09-28T13:12:47.155Z,1.85
2022-09-28T13:15:16.238Z,2.92
2022-09-28T13:17:42.449Z,5.40
2022-09-28T13:20:47.525Z,2.00
2022-09-28T13:23:20.959Z,7.35
2022-09-28T13:25:53.124Z,2.13
2022-09-28T13:28:24.985Z,1.60
2022-09-28T13:30:53.828Z,3.80
2022-09-28T13:33:25.778Z,1.88
2022-09-28T13:35:52.030Z,3.38
2022-09-28T13:38:18.236Z,1.92
2022-09-28T13:41:03.247Z,3.80
2022-09-28T13:43:48.764Z,3.78
2022-09-28T13:46:41.304Z,1.45
2022-09-28T13:49:11.162Z,3.10
2022-09-28T13:51:44.834Z,2.70
2022-09-28T13:54:11.110Z,3.45
2022-09-28T13:56:44.151Z,1.45
2022-09-28T13:59:22.526Z,1.48
2022-09-28T14:02:06.798Z,2.55
2022-09-28T14:04:47.045Z,3.28
2022-09-28T14:07:20.684Z,2.03
2022-09-28T14:09:47.804Z,1.10
2022-09-28T14:12:26.007Z,2.63
2022-09-28T14:14:52.711Z,4.38
2022-09-28T14:17:18.978Z,1.65
2022-09-28T14:19:46.818Z,1.77
2022-09-28T14:22:26.061Z,3.38
2022-09-28T14:25:04.228Z,5.43
2022-09-28T14:27:49.424Z,2.05
2022-09-28T14:30:15.694Z,2.22
2022-09-28T14:32:45.078Z,0.80
2022-09-28T14:35:23.817Z,0.70
2022-09-28T14:38:10.265Z,0.98
2022-09-28T14:41:10.888Z,1.77
2022-09-28T14:43:57.521Z,0.93
2022-09-28T14:46:28.366Z,0.95
2022-09-28T14:49:05.277Z,0.25
2022-09-28T14:51:33.022Z,0.90
2022-09-28T14:54:08.833Z,0.55
2022-09-28T14:56:46.781Z,0.45
2022-09-28T14:59:16.975Z,0.80
2022-09-28T15:01:45.435Z,1.75
2022-09-28T15:04:12.735Z,0.55
2022-09-28T15:06:46.510Z,0.32
2022-09-28T15:09:28.841Z,2.33
2022-09-28T15:11:59.179Z,0.77
2022-09-28T15:14:27.815Z,0.88
2022-09-28T15:16:55.275Z,1.98
2022-09-28T15:19:26.263Z,2.05
2022-09-28T15:21:52.640Z,2.15
2022-09-28T15:24:27.840Z,1.65
2022-09-28T15:26:54.623Z,0.90
2022-09-28T15:29:22.670Z,0.68
2022-09-28T15:31:53.552Z,1.48
2022-09-28T15:34:45.917Z,0.80
2022-09-28T15:37:12.945Z,3.58
2022-09-28T15:39:39.261Z,2.40
2022-09-28T15:42:05.590Z,0.70
2022-09-28T15:44:37.115Z,1.05
2022-09-28T15:47:05.998Z,2.13
2022-09-28T15:49:39.038Z,1.17
2022-09-28T15:52:05.862Z,7.32
2022-09-28T15:54:38.778Z,0.85
2022-09-28T15:57:05.045Z,1.15
2022-09-28T15:59:36.730Z,1.45
2022-09-28T16:02:14.722Z,0.63
2022-09-28T16:04:56.124Z,2.90
2022-09-28T16:07:28.371Z,2.92
2022-09-28T16:09:54.934Z,3.53
2022-09-28T16:12:21.714Z,1.40
2022-09-28T16:14:49.607Z,1.88
2022-09-28T16:17:17.998Z,0.93
2022-09-28T16:19:48.558Z,2.05
2022-09-28T16:22:19.380Z,2.42
2022-09-28T16:24:53.495Z,2.70
2022-09-28T16:27:25.186Z,1.40
2022-09-28T16:30:10.011Z,7.35
2022-09-28T16:32:41.436Z,2.45
2022-09-28T16:35:13.582Z,2.15
2022-09-28T16:37:43.378Z,2.97
2022-09-28T16:40:09.923Z,2.35
2022-09-28T16:42:36.736Z,2.22
2022-09-28T16:45:05.171Z,2.75
2022-09-28T16:47:34.882Z,3.83
2022-09-28T16:50:02.435Z,2.22
2022-09-28T16:52:47.176Z,2.42
2022-09-28T16:55:38.788Z,3.83
2022-09-28T16:58:04.635Z,3.22
2022-09-28T17:00:30.957Z,6.18
2022-09-28T17:02:58.299Z,8.95
2022-09-28T17:05:25.449Z,5.50
2022-09-28T17:08:01.615Z,3.33
2022-09-28T17:10:55.782Z,2.45
2022-09-28T17:13:28.938Z,5.40
2022-09-28T17:15:55.221Z,18.88
2022-09-28T17:18:21.499Z,11.52
2022-09-28T17:20:49.384Z,5.63
2022-09-28T17:23:16.073Z,5.15
2022-09-28T17:25:42.596Z,8.88
2022-09-28T17:28:27.945Z,5.80
2022-09-28T17:30:54.260Z,4.80
2022-09-28T17:33:20.878Z,6.47
2022-09-28T17:35:48.073Z,2.95
2022-09-28T17:38:15.665Z,5.13
2022-09-28T17:40:43.127Z,10.25
2022-09-28T17:43:09.643Z,4.28
2022-09-28T17:45:39.366Z,5.05
2022-09-28T17:48:06.169Z,6.47
2022-09-28T17:50:34.079Z,8.93
2022-09-28T17:53:05.817Z,4.97
2022-09-28T17:55:33.286Z,6.22
2022-09-28T17:58:01.250Z,5.40
2022-09-28T18:00:28.008Z,5.38
2022-09-28T18:02:55.054Z,5.82
2022-09-28T18:05:21.562Z,3.75
2022-09-28T18:07:48.061Z,6.05
2022-09-28T18:10:15.354Z,7.60
2022-09-28T18:12:43.156Z,5.03
2022-09-28T18:15:10.284Z,5.15
2022-09-28T18:17:36.724Z,6.65
2022-09-28T18:20:03.806Z,3.28
2022-09-28T18:22:30.126Z,3.55
2022-09-28T18:24:56.400Z,4.50
2022-09-28T18:27:22.736Z,5.22
2022-09-28T18:29:49.032Z,4.07
2022-09-28T18:32:15.296Z,3.88
2022-09-28T18:34:41.629Z,4.88
2022-09-28T18:37:08.000Z,5.97
2022-09-28T18:39:35.035Z,6.18
2022-09-28T18:42:02.091Z,6.35
2022-09-28T18:44:28.595Z,5.32
2022-09-28T18:46:54.879Z,8.43
2022-09-28T18:49:21.770Z,4.80
2022-09-28T18:51:48.053Z,6.85
2022-09-28T18:54:14.594Z,5.00
2022-09-28T18:56:40.874Z,4.82
2022-09-28T18:59:11.953Z,11.55
2022-09-28T19:01:39.023Z,10.07
2022-09-28T19:04:06.674Z,8.85
2022-09-28T19:06:34.269Z,9.77
2022-09-28T19:09:01.044Z,8.23
2022-09-28T19:11:27.488Z,12.77
2022-09-28T19:13:54.676Z,9.73
2022-09-28T19:16:25.182Z,8.63
2022-09-28T19:18:53.456Z,11.98
2022-09-28T19:21:19.847Z,9.50
2022-09-28T19:23:49.355Z,10.65
2022-09-28T19:26:17.821Z,8.80
2022-09-28T19:28:44.087Z,10.38
2022-09-28T19:31:11.042Z,11.18
2022-09-28T19:33:38.049Z,9.80
2022-09-28T19:36:06.202Z,11.85
2022-09-28T19:38:33.038Z,9.23
2022-09-28T19:40:59.934Z,8.57
2022-09-28T19:43:26.860Z,9.05
2022-09-28T19:45:54.011Z,10.98
2022-09-28T19:48:26.214Z,9.20
2022-09-28T19:50:56.439Z,8.38
2022-09-28T19:53:26.861Z,9.63
2022-09-28T19:55:54.038Z,9.50
2022-09-28T19:58:21.052Z,11.05
2022-09-28T20:00:47.432Z,9.70
2022-09-28T20:03:13.709Z,8.43
2022-09-28T20:05:41.457Z,9.65
2022-09-28T20:08:08.319Z,9.60
2022-09-28T20:10:34.757Z,9.15
2022-09-28T20:13:01.035Z,9.27
2022-09-28T20:15:28.110Z,11.73
2022-09-28T20:17:58.884Z,8.90
2022-09-28T20:20:26.884Z,10.02
2022-09-28T20:22:53.863Z,13.07
2022-09-28T20:25:20.177Z,9.98
2022-09-28T20:27:46.461Z,12.05
2022-09-28T20:30:13.198Z,12.85
2022-09-28T20:32:39.477Z,11.30
2022-09-28T20:35:06.082Z,11.63
2022-09-28T20:37:33.473Z,14.13
2022-09-28T20:40:01.660Z,11.50
2022-09-28T20:42:27.948Z,11.68
2022-09-28T20:44:54.320Z,11.70
2022-09-28T20:47:20.596Z,12.50
2022-09-28T20:49:47.486Z,15.00
2022-09-28T20:52:13.786Z,11.63
2022-09-28T20:54:40.071Z,14.88
2022-09-28T20:57:17.329Z,17.42
2022-09-28T20:59:51.009Z,16.83
2022-09-28T21:02:20.102Z,13.13
2022-09-28T21:04:46.431Z,13.95
2022-09-28T21:07:12.727Z,15.45
2022-09-28T21:09:39.000Z,16.00
2022-09-28T21:12:05.376Z,11.43
2022-09-28T21:14:31.923Z,12.18
2022-09-28T21:16:58.194Z,11.57
2022-09-28T21:19:24.473Z,13.20
2022-09-28T21:21:51.158Z,14.82
2022-09-28T21:24:17.413Z,12.00
2022-09-28T21:26:43.691Z,10.48
2022-09-28T21:29:14.053Z,12.73
2022-09-28T21:34:07.035Z,11.90
2022-09-28T21:36:33.797Z,12.40
2022-09-28T21:39:00.062Z,10.90
2022-09-28T21:41:26.685Z,13.38
2022-09-28T21:43:53.026Z,11.57
2022-09-28T21:46:19.389Z,11.98
2022-09-28T21:48:45.760Z,11.68
2022-09-28T21:51:14.997Z,9.93
2022-09-28T21:53:41.330Z,11.18
2022-09-28T21:56:09.458Z,9.25
2022-09-28T21:58:36.304Z,11.52
2022-09-28T22:01:13.029Z,11.00
2022-09-28T22:03:39.382Z,12.38
2022-09-28T22:06:05.954Z,11.25
2022-09-28T22:08:32.801Z,9.88
2022-09-28T22:11:03.749Z,12.25
2022-09-28T22:13:30.946Z,10.75
2022-09-28T22:16:00.385Z,15.50
2022-09-28T22:18:27.339Z,9.33
2022-09-28T22:21:00.460Z,11.85
2022-09-28T22:23:27.636Z,11.98
2022-09-28T22:26:01.140Z,15.82
2022-09-28T22:28:27.660Z,16.55
2022-09-28T22:30:54.138Z,10.90
2022-09-28T22:33:20.485Z,13.98
2022-09-28T22:35:49.055Z,10.05
2022-09-28T22:38:15.596Z,13.90
2022-09-28T22:40:42.565Z,11.82
2022-09-28T22:43:08.857Z,11.77
2022-09-28T22:45:35.118Z,13.25
2022-09-28T22:48:01.512Z,17.90
2022-09-28T22:50:27.769Z,15.20
2022-09-28T22:52:56.165Z,13.70
2022-09-28T22:55:22.431Z,15.85
2022-09-28T22:57:48.706Z,15.68
2022-09-28T23:00:21.062Z,19.98
2022-09-28T23:02:47.464Z,17.98
2022-09-28T23:05:13.931Z,14.57
2022-09-28T23:07:40.217Z,15.90
2022-09-28T23:10:06.739Z,16.48
2022-09-28T23:12:35.603Z,20.58
2022-09-28T23:15:02.054Z,13.95
2022-09-28T23:17:28.354Z,14.88
2022-09-28T23:19:54.625Z,19.83
2022-09-28T23:22:20.910Z,18.45
2022-09-28T23:24:47.177Z,16.85
2022-09-28T23:27:13.457Z,15.40
2022-09-28T23:29:46.626Z,17.00
2022-09-28T23:32:13.365Z,18.33
2022-09-28T23:34:39.864Z,17.98
2022-09-28T23:37:06.149Z,20.60
2022-09-28T23:39:32.415Z,17.92
2022-09-28T23:41:58.949Z,16.63
2022-09-28T23:44:26.469Z,20.42
2022-09-28T23:46:52.796Z,18.77
2022-09-28T23:49:19.347Z,20.77
2022-09-28T23:51:45.960Z,17.42
2022-09-28T23:54:12.348Z,17.15
2022-09-28T23:56:38.661Z,18.35
2022-09-28T23:59:05.061Z,17.15
